Terminal Aerodrome Forecast
Issued by NWS Buffalo, NY

Home | Current Version | Previous Version | Text Only | Print | Product List | Glossary On
Versions: 1 2 3 4 5 6 7 8 9 10 11 12 13 14 15 16 17 18 19 20 21 22 23 24
000
FTUS41 KBUF 190309 AAA
TAFROC
TAF AMD
KROC 190309Z 1903/1924 17011KT P6SM FEW200
     FM191400 19016KT P6SM BKN120
     FM191700 19013KT 6SM -RA OVC035
     FM192300 20008KT 6SM -RA OVC020 WS020/24040KT=

USA.gov is the U.S. government's official web portal to all federal, state and local government web resources and services.